createdAt,value
2022-09-03T00:00:30.731Z,1018.81
2022-09-03T00:03:06.439Z,1018.93
2022-09-03T00:05:40.696Z,1019.07
2022-09-03T00:08:12.397Z,1019.02
2022-09-03T00:10:45.993Z,1019.09
2022-09-03T00:13:17.733Z,1019.10
2022-09-03T00:15:45.067Z,1019.01
2022-09-03T00:18:30.550Z,1019.01
2022-09-03T00:21:03.701Z,1019.03
2022-09-03T00:23:31.592Z,1018.94
2022-09-03T00:26:05.191Z,1018.99
2022-09-03T00:28:39.352Z,1019.01
2022-09-03T00:31:11.683Z,1019.19
2022-09-03T00:33:42.326Z,1019.29
2022-09-03T00:36:17.018Z,1019.23
2022-09-03T00:38:52.971Z,1019.32
2022-09-03T00:41:32.234Z,1019.38
2022-09-03T00:44:14.926Z,1019.34
2022-09-03T00:46:47.250Z,1019.28
2022-09-03T00:49:52.203Z,1019.21
2022-09-03T00:52:33.761Z,1019.22
2022-09-03T00:55:12.999Z,1019.09
2022-09-03T00:57:55.154Z,1019.14
2022-09-03T01:00:34.737Z,1019.25
2022-09-03T01:03:09.388Z,1019.40
2022-09-03T01:06:04.653Z,1019.43
2022-09-03T01:08:49.306Z,1019.38
2022-09-03T01:11:24.665Z,1019.55
2022-09-03T01:14:01.095Z,1019.41
2022-09-03T01:16:36.625Z,1019.53
2022-09-03T01:19:18.326Z,1019.67
2022-09-03T01:22:05.337Z,1019.75
2022-09-03T01:25:06.182Z,1019.98
2022-09-03T01:27:45.679Z,1019.82
2022-09-03T01:30:20.132Z,1019.78
2022-09-03T01:32:53.927Z,1019.76
2022-09-03T01:35:36.202Z,1019.61
2022-09-03T01:38:17.002Z,1019.68
2022-09-03T01:40:56.020Z,1019.71
2022-09-03T01:43:41.022Z,1019.68
2022-09-03T01:46:20.951Z,1019.71
2022-09-03T01:48:55.905Z,1019.77
2022-09-03T01:51:25.398Z,1019.77
2022-09-03T01:54:24.571Z,1019.70
2022-09-03T01:57:35.224Z,1019.79
2022-09-03T02:00:06.842Z,1019.94
2022-09-03T02:02:38.695Z,1019.87
2022-09-03T02:05:09.374Z,1019.94
2022-09-03T02:07:39.628Z,1019.91
2022-09-03T02:10:08.790Z,1019.90
2022-09-03T02:12:40.241Z,1019.87
2022-09-03T02:15:15.608Z,1019.86
2022-09-03T02:17:47.357Z,1019.86
2022-09-03T02:20:18.107Z,1019.93
2022-09-03T02:22:45.145Z,1019.89
2022-09-03T02:25:12.025Z,1020.01
2022-09-03T02:27:40.885Z,1020.12
2022-09-03T02:30:09.065Z,1020.18
2022-09-03T02:32:37.941Z,1020.19
2022-09-03T02:35:09.503Z,1020.10
2022-09-03T02:37:36.813Z,1019.96
2022-09-03T02:40:12.391Z,1019.88
2022-09-03T02:42:42.432Z,1019.83
2022-09-03T02:45:20.882Z,1019.89
2022-09-03T02:47:53.107Z,1019.74
2022-09-03T02:50:31.580Z,1019.79
2022-09-03T02:52:59.702Z,1019.71
2022-09-03T02:55:28.250Z,1019.67
2022-09-03T02:57:56.456Z,1019.68
2022-09-03T03:00:28.349Z,1019.70
2022-09-03T03:02:55.744Z,1019.68
2022-09-03T03:05:34.566Z,1019.69
2022-09-03T03:08:03.605Z,1019.71
2022-09-03T03:10:33.152Z,1019.64
2022-09-03T03:13:00.097Z,1019.69
2022-09-03T03:15:29.455Z,1019.73
2022-09-03T03:17:57.462Z,1019.70
2022-09-03T03:20:26.150Z,1019.73
2022-09-03T03:22:53.195Z,1019.70
2022-09-03T03:25:20.247Z,1019.73
2022-09-03T03:27:48.928Z,1019.84
2022-09-03T03:30:15.994Z,1019.93
2022-09-03T03:32:43.118Z,1019.73
2022-09-03T03:35:17.514Z,1019.84
2022-09-03T03:37:45.726Z,1019.76
2022-09-03T03:40:13.989Z,1019.67
2022-09-03T03:42:41.102Z,1019.59
2022-09-03T03:45:09.352Z,1019.61
2022-09-03T03:47:36.878Z,1019.62
2022-09-03T03:50:04.862Z,1019.64
2022-09-03T03:52:32.035Z,1019.49
2022-09-03T03:55:00.644Z,1019.68
2022-09-03T03:57:31.881Z,1019.59
2022-09-03T04:00:02.360Z,1019.68
2022-09-03T04:02:29.477Z,1019.68
2022-09-03T04:04:56.807Z,1019.65
2022-09-03T04:07:23.792Z,1019.70
2022-09-03T04:09:50.682Z,1019.67
2022-09-03T04:12:20.326Z,1019.65
2022-09-03T04:14:47.412Z,1019.59
2022-09-03T04:17:18.020Z,1019.66
2022-09-03T04:19:47.344Z,1019.80
2022-09-03T04:22:14.580Z,1019.80
2022-09-03T04:24:41.488Z,1019.84
2022-09-03T04:27:08.550Z,1019.84
2022-09-03T04:29:37.617Z,1019.80
2022-09-03T04:32:06.738Z,1019.83
2022-09-03T04:34:33.947Z,1019.79
2022-09-03T04:37:00.914Z,1019.89
2022-09-03T04:39:28.199Z,1019.86
2022-09-03T04:41:57.652Z,1019.76
2022-09-03T04:44:28.819Z,1019.77
2022-09-03T04:47:02.833Z,1019.76
2022-09-03T04:49:29.634Z,1019.70
2022-09-03T04:51:57.789Z,1019.71
2022-09-03T04:54:28.131Z,1019.64
2022-09-03T04:56:59.079Z,1019.67
2022-09-03T04:59:26.568Z,1019.65
2022-09-03T05:01:54.117Z,1019.69
2022-09-03T05:04:23.520Z,1019.71
2022-09-03T05:06:50.414Z,1019.63
2022-09-03T05:09:17.486Z,1019.63
2022-09-03T05:11:44.524Z,1019.62
2022-09-03T05:14:13.444Z,1019.65
2022-09-03T05:16:40.265Z,1019.60
2022-09-03T05:19:09.280Z,1019.65
2022-09-03T05:21:39.345Z,1019.61
2022-09-03T05:24:06.338Z,1019.67
2022-09-03T05:26:40.266Z,1019.69
2022-09-03T05:29:08.732Z,1019.66
2022-09-03T05:31:37.922Z,1019.72
2022-09-03T05:34:05.893Z,1019.68
2022-09-03T05:36:34.415Z,1019.58
2022-09-03T05:39:04.700Z,1019.59
2022-09-03T05:41:35.748Z,1019.53
2022-09-03T05:44:04.420Z,1019.48
2022-09-03T05:46:33.039Z,1019.38
2022-09-03T05:49:01.316Z,1019.33
2022-09-03T05:51:34.952Z,1019.21
2022-09-03T05:54:04.041Z,1019.08
2022-09-03T05:56:33.267Z,1019.15
2022-09-03T05:59:01.503Z,1018.77
2022-09-03T06:01:31.429Z,1018.72
2022-09-03T06:04:02.139Z,1018.77
2022-09-03T06:06:33.561Z,1018.81
2022-09-03T06:09:04.967Z,1018.80
2022-09-03T06:11:37.438Z,1018.78
2022-09-03T06:14:07.451Z,1018.81
2022-09-03T06:16:38.073Z,1018.94
2022-09-03T06:19:06.469Z,1018.94
2022-09-03T06:21:39.570Z,1018.91
2022-09-03T06:24:09.870Z,1018.88
2022-09-03T06:26:39.554Z,1018.87
2022-09-03T06:29:06.744Z,1018.91
2022-09-03T06:31:35.049Z,1018.89
2022-09-03T06:34:04.287Z,1018.90
2022-09-03T06:36:32.176Z,1018.56
2022-09-03T06:38:59.119Z,1018.28
2022-09-03T06:41:30.439Z,1018.15
2022-09-03T06:44:00.129Z,1018.18
2022-09-03T06:46:27.030Z,1018.01
2022-09-03T06:48:55.105Z,1017.83
2022-09-03T06:51:30.369Z,1017.65
2022-09-03T06:54:03.496Z,1017.62
2022-09-03T06:56:37.305Z,1017.79
2022-09-03T06:59:07.570Z,1017.89
2022-09-03T07:01:35.757Z,1017.92
2022-09-03T07:04:05.007Z,1017.96
2022-09-03T07:06:34.602Z,1018.13
2022-09-03T07:09:03.479Z,1017.94
2022-09-03T07:11:32.190Z,1018.07
2022-09-03T07:14:02.115Z,1018.13
2022-09-03T07:16:30.873Z,1018.13
2022-09-03T07:19:01.139Z,1018.04
2022-09-03T07:21:29.756Z,1017.67
2022-09-03T07:23:58.802Z,1017.38
2022-09-03T07:26:27.925Z,1017.18
2022-09-03T07:28:58.208Z,1017.01
2022-09-03T07:31:27.393Z,1016.77
2022-09-03T07:33:54.719Z,1016.62
2022-09-03T07:36:23.654Z,1016.46
2022-09-03T07:38:51.734Z,1016.40
2022-09-03T07:41:23.946Z,1016.29
2022-09-03T07:44:00.970Z,1016.09
2022-09-03T07:46:27.846Z,1016.04
2022-09-03T07:48:57.511Z,1016.09
2022-09-03T07:51:26.273Z,1016.05
2022-09-03T07:53:58.770Z,1015.92
2022-09-03T07:56:28.866Z,1015.85
2022-09-03T07:58:55.945Z,1015.79
2022-09-03T08:01:26.707Z,1015.71
2022-09-03T08:03:54.764Z,1015.68
2022-09-03T08:06:23.667Z,1015.54
2022-09-03T08:08:58.752Z,1015.51
2022-09-03T08:11:29.625Z,1015.42
2022-09-03T08:13:59.099Z,1015.42
2022-09-03T08:16:29.449Z,1015.33
2022-09-03T08:18:57.559Z,1015.29
2022-09-03T08:21:26.593Z,1015.26
2022-09-03T08:23:55.211Z,1015.21
2022-09-03T08:26:23.245Z,1015.10
2022-09-03T08:28:52.884Z,1015.09
2022-09-03T08:31:21.843Z,1015.06
2022-09-03T08:33:52.520Z,1015.09
2022-09-03T08:36:24.030Z,1015.06
2022-09-03T08:38:52.252Z,1014.98
2022-09-03T08:41:23.908Z,1015.00
2022-09-03T08:44:09.716Z,1014.98
2022-09-03T08:46:48.346Z,1014.90
2022-09-03T08:49:22.983Z,1014.89
2022-09-03T08:51:52.643Z,1014.79
2022-09-03T08:54:24.088Z,1014.73
2022-09-03T08:56:51.153Z,1015.12
2022-09-03T08:59:18.303Z,1014.86
2022-09-03T09:01:54.944Z,1014.87
2022-09-03T09:04:36.126Z,1014.78
2022-09-03T09:07:14.563Z,1014.78
2022-09-03T09:09:48.451Z,1014.67
2022-09-03T09:12:34.062Z,1014.61
2022-09-03T09:15:12.598Z,1014.90
2022-09-03T09:17:57.353Z,1014.74
2022-09-03T09:20:36.078Z,1014.65
2022-09-03T09:23:05.243Z,1014.51
2022-09-03T09:25:37.015Z,1014.41
2022-09-03T09:28:24.224Z,1014.45
2022-09-03T09:30:55.809Z,1014.41
2022-09-03T09:33:24.502Z,1014.31
2022-09-03T09:35:54.365Z,1014.47
2022-09-03T09:38:28.798Z,1014.33
2022-09-03T09:40:55.716Z,1014.25
2022-09-03T09:43:22.708Z,1014.27
2022-09-03T09:45:52.698Z,1014.07
2022-09-03T09:48:34.880Z,1014.06
2022-09-03T09:51:10.087Z,1014.01
2022-09-03T09:53:37.927Z,1014.09
2022-09-03T09:56:06.608Z,1013.99
2022-09-03T09:58:35.290Z,1013.90
2022-09-03T10:01:05.466Z,1013.80
2022-09-03T10:03:33.774Z,1013.73
2022-09-03T10:06:09.456Z,1013.64
2022-09-03T10:08:36.958Z,1013.70
2022-09-03T10:11:04.778Z,1013.52
2022-09-03T10:13:43.465Z,1013.45
2022-09-03T10:16:21.073Z,1013.32
2022-09-03T10:19:03.643Z,1013.21
2022-09-03T10:21:42.194Z,1013.19
2022-09-03T10:24:55.158Z,1013.21
2022-09-03T10:27:23.310Z,1013.17
2022-09-03T10:29:53.160Z,1013.12
2022-09-03T10:32:39.483Z,1013.31
2022-09-03T10:35:20.878Z,1013.21
2022-09-03T10:38:02.259Z,1013.22
2022-09-03T10:40:37.182Z,1013.33
2022-09-03T10:43:25.661Z,1013.29
2022-09-03T10:46:01.822Z,1013.13
2022-09-03T10:48:53.510Z,1013.10
2022-09-03T10:51:26.913Z,1013.02
2022-09-03T10:54:36.085Z,1013.03
2022-09-03T10:57:10.970Z,1013.02
2022-09-03T10:59:53.655Z,1012.85
2022-09-03T11:03:00.185Z,1012.79
2022-09-03T11:05:33.322Z,1012.78
2022-09-03T11:08:03.357Z,1012.79
2022-09-03T11:10:38.327Z,1012.81
2022-09-03T11:13:10.560Z,1012.97
2022-09-03T11:15:43.653Z,1012.88
2022-09-03T11:18:22.110Z,1012.84
2022-09-03T11:20:56.877Z,1012.78
2022-09-03T11:23:26.670Z,1012.81
2022-09-03T11:26:02.455Z,1012.93
2022-09-03T11:28:41.036Z,1012.87
2022-09-03T11:31:22.428Z,1012.89
2022-09-03T11:33:53.443Z,1012.81
2022-09-03T11:36:31.811Z,1012.67
2022-09-03T11:39:00.933Z,1012.72
2022-09-03T11:41:35.110Z,1012.70
2022-09-03T11:44:17.206Z,1012.81
2022-09-03T11:46:55.380Z,1012.77
2022-09-03T11:49:29.150Z,1012.74
2022-09-03T11:52:01.184Z,1012.66
2022-09-03T11:54:31.661Z,1012.53
2022-09-03T11:57:12.063Z,1012.54
2022-09-03T11:59:41.739Z,1012.68
2022-09-03T12:02:25.344Z,1012.66
2022-09-03T12:05:13.261Z,1012.61
2022-09-03T12:07:54.831Z,1012.54
2022-09-03T12:10:35.124Z,1012.70
2022-09-03T12:13:17.289Z,1012.51
2022-09-03T12:16:15.304Z,1012.42
2022-09-03T12:18:44.964Z,1012.42
2022-09-03T12:21:13.217Z,1012.28
2022-09-03T12:23:50.269Z,1012.33
2022-09-03T12:26:19.796Z,1012.53
2022-09-03T12:28:51.961Z,1012.44
2022-09-03T12:31:21.300Z,1012.41
2022-09-03T12:33:49.934Z,1012.41
2022-09-03T12:36:17.738Z,1012.53
2022-09-03T12:39:10.485Z,1012.38
2022-09-03T12:41:31.833Z,1012.24
2022-09-03T12:44:04.424Z,1012.46
2022-09-03T12:46:34.438Z,1012.43
2022-09-03T12:52:05.439Z,1012.35
2022-09-03T12:54:34.746Z,1012.23
2022-09-03T12:57:04.291Z,1012.21
2022-09-03T12:59:40.193Z,1012.21
2022-09-03T13:02:16.678Z,1012.21
2022-09-03T13:04:46.394Z,1012.35
2022-09-03T13:07:20.754Z,1012.42
2022-09-03T13:09:50.628Z,1012.52
2022-09-03T13:12:32.033Z,1012.46
2022-09-03T13:15:12.447Z,1012.62
2022-09-03T13:18:10.538Z,1012.60
2022-09-03T13:20:52.105Z,1012.63
2022-09-03T13:23:46.127Z,1012.64
2022-09-03T13:26:30.331Z,1012.56
2022-09-03T13:29:17.232Z,1012.43
2022-09-03T13:31:50.906Z,1012.43
2022-09-03T13:34:23.034Z,1012.57
2022-09-03T13:36:59.370Z,1012.54
2022-09-03T13:39:32.975Z,1012.49
2022-09-03T13:42:06.552Z,1012.47
2022-09-03T13:44:43.444Z,1012.50
2022-09-03T13:47:27.149Z,1012.53
2022-09-03T13:50:10.068Z,1012.56
2022-09-03T13:52:43.091Z,1012.55
2022-09-03T13:55:23.294Z,1012.50
2022-09-03T13:58:01.523Z,1012.68
2022-09-03T14:00:35.251Z,1012.65
2022-09-03T14:03:12.127Z,1012.63
2022-09-03T14:06:08.249Z,1012.52
2022-09-03T14:08:46.266Z,1012.59
2022-09-03T14:11:25.979Z,1012.56
2022-09-03T14:14:13.500Z,1012.68
2022-09-03T14:16:47.807Z,1012.73
2022-09-03T14:19:31.061Z,1012.85
2022-09-03T14:22:02.043Z,1012.85
2022-09-03T14:24:40.526Z,1012.92
2022-09-03T14:27:09.779Z,1012.91
2022-09-03T14:29:50.577Z,1013.00
2022-09-03T14:32:26.648Z,1013.01
2022-09-03T14:35:36.400Z,1013.10
2022-09-03T14:38:27.268Z,1013.13
2022-09-03T14:41:07.909Z,1013.11
2022-09-03T14:44:03.970Z,1013.23
2022-09-03T14:46:52.787Z,1013.31
2022-09-03T14:49:33.098Z,1013.53
2022-09-03T14:52:16.334Z,1013.66
2022-09-03T14:55:02.635Z,1013.73
2022-09-03T14:57:45.278Z,1013.75
2022-09-03T15:00:18.368Z,1013.78
2022-09-03T15:03:18.091Z,1013.83
2022-09-03T15:06:30.724Z,1013.78
2022-09-03T15:09:30.674Z,1013.93
2022-09-03T15:12:05.508Z,1013.92
2022-09-03T15:14:42.573Z,1013.87
2022-09-03T15:17:49.311Z,1014.04
2022-09-03T15:20:22.237Z,1014.00
2022-09-03T15:23:20.795Z,1014.07
2022-09-03T15:26:22.613Z,1014.11
2022-09-03T15:29:04.286Z,1014.21
2022-09-03T15:31:40.490Z,1014.20
2022-09-03T15:34:22.927Z,1014.13
2022-09-03T15:36:52.547Z,1014.17
2022-09-03T15:39:24.359Z,1014.15
2022-09-03T15:41:58.811Z,1014.20
2022-09-03T15:44:44.804Z,1014.19
2022-09-03T15:47:28.122Z,1014.28
2022-09-03T15:50:11.588Z,1014.24
2022-09-03T15:52:55.997Z,1014.24
2022-09-03T15:55:32.376Z,1014.23
2022-09-03T15:58:11.512Z,1014.26
2022-09-03T16:01:01.486Z,1014.35
2022-09-03T16:03:37.500Z,1014.42
2022-09-03T16:06:17.382Z,1014.44
2022-09-03T16:08:52.800Z,1014.70
2022-09-03T16:11:32.272Z,1014.72
2022-09-03T16:14:08.346Z,1014.80
2022-09-03T16:16:53.948Z,1014.74
2022-09-03T16:19:27.566Z,1014.83
2022-09-03T16:21:58.578Z,1014.82
2022-09-03T16:24:33.788Z,1014.97
2022-09-03T16:27:07.814Z,1014.98
2022-09-03T16:29:34.657Z,1015.15
2022-09-03T16:32:12.483Z,1015.26
2022-09-03T16:34:50.252Z,1015.24
2022-09-03T16:37:28.213Z,1015.40
2022-09-03T16:40:09.439Z,1015.61
2022-09-03T16:42:43.969Z,1015.73
2022-09-03T16:45:26.060Z,1015.65
2022-09-03T16:48:08.630Z,1015.80
2022-09-03T16:50:49.367Z,1015.88
2022-09-03T16:53:26.025Z,1015.86
2022-09-03T16:56:03.480Z,1015.88
2022-09-03T16:58:39.002Z,1015.79
2022-09-03T17:01:20.001Z,1015.92
2022-09-03T17:04:20.625Z,1015.95
2022-09-03T17:06:56.483Z,1015.96
2022-09-03T17:09:36.591Z,1015.90
2022-09-03T17:12:17.111Z,1015.94
2022-09-03T17:14:55.561Z,1015.97
2022-09-03T17:17:41.432Z,1016.00
2022-09-03T17:20:14.779Z,1016.04
2022-09-03T17:22:55.198Z,1016.07
2022-09-03T17:25:35.198Z,1016.10
2022-09-03T17:28:14.829Z,1016.11
2022-09-03T17:30:50.375Z,1016.14
2022-09-03T17:33:40.660Z,1016.24
2022-09-03T17:36:14.480Z,1016.34
2022-09-03T17:39:15.859Z,1016.31
2022-09-03T17:41:47.053Z,1016.34
2022-09-03T17:44:25.103Z,1016.42
2022-09-03T17:47:10.842Z,1016.42
2022-09-03T17:49:46.896Z,1016.49
2022-09-03T17:52:29.880Z,1016.53
2022-09-03T17:55:15.824Z,1016.53
2022-09-03T17:57:49.123Z,1016.69
2022-09-03T18:00:24.124Z,1016.79
2022-09-03T18:03:03.746Z,1016.90
2022-09-03T18:05:42.494Z,1016.92
2022-09-03T18:08:17.645Z,1017.02
2022-09-03T18:10:59.010Z,1017.01
2022-09-03T18:13:46.769Z,1016.99
2022-09-03T18:16:21.921Z,1017.11
2022-09-03T18:18:52.536Z,1017.14
2022-09-03T18:21:27.802Z,1017.13
2022-09-03T18:24:07.311Z,1017.21
2022-09-03T18:26:42.052Z,1017.13
2022-09-03T18:29:13.499Z,1017.30
2022-09-03T18:31:40.813Z,1017.22
2022-09-03T18:34:09.403Z,1017.24
2022-09-03T18:36:37.923Z,1017.16
2022-09-03T18:39:13.629Z,1017.27
2022-09-03T18:42:00.263Z,1017.31
2022-09-03T18:44:43.879Z,1017.31
2022-09-03T18:50:20.998Z,1017.37
2022-09-03T18:52:55.364Z,1017.39
2022-09-03T18:55:37.411Z,1017.36
2022-09-03T18:58:20.868Z,1017.40
2022-09-03T19:00:56.988Z,1017.41
2022-09-03T19:03:39.390Z,1017.44
2022-09-03T19:06:19.993Z,1017.42
2022-09-03T19:08:58.811Z,1017.48
2022-09-03T19:11:30.219Z,1017.50
2022-09-03T19:14:13.973Z,1017.60
2022-09-03T19:16:58.084Z,1017.72
2022-09-03T19:19:50.852Z,1017.85
2022-09-03T19:22:26.699Z,1017.88
2022-09-03T19:25:00.538Z,1017.98
2022-09-03T19:27:54.234Z,1018.03
2022-09-03T19:30:34.425Z,1017.94
2022-09-03T19:33:13.850Z,1017.96
2022-09-03T19:35:55.662Z,1017.92
2022-09-03T19:38:35.284Z,1017.88
2022-09-03T19:41:23.096Z,1017.98
2022-09-03T19:44:07.926Z,1017.96
2022-09-03T19:46:41.311Z,1018.09
2022-09-03T19:49:14.687Z,1018.07
2022-09-03T19:51:52.730Z,1018.03
2022-09-03T19:54:24.985Z,1018.09
2022-09-03T19:56:59.191Z,1018.08
2022-09-03T19:59:32.383Z,1018.09
2022-09-03T20:02:03.680Z,1018.23
2022-09-03T20:04:35.300Z,1018.28
2022-09-03T20:07:06.182Z,1018.33
2022-09-03T20:09:44.446Z,1018.31
2022-09-03T20:12:17.504Z,1018.45
2022-09-03T20:14:45.215Z,1018.36
2022-09-03T20:17:24.031Z,1018.38
2022-09-03T20:20:06.929Z,1018.37
2022-09-03T20:22:44.109Z,1018.22
2022-09-03T20:25:47.447Z,1018.34
2022-09-03T20:28:35.914Z,1018.34
2022-09-03T20:31:09.834Z,1018.35
2022-09-03T20:33:54.615Z,1018.36
2022-09-03T20:36:34.068Z,1018.28
2022-09-03T20:39:26.739Z,1018.31
2022-09-03T20:42:05.345Z,1018.21
2022-09-03T20:45:11.676Z,1018.33
2022-09-03T20:47:56.886Z,1018.20
2022-09-03T20:50:37.302Z,1018.52
2022-09-03T20:53:24.970Z,1018.60
2022-09-03T20:55:57.191Z,1018.70
2022-09-03T20:58:31.863Z,1018.73
2022-09-03T21:01:05.881Z,1018.75
2022-09-03T21:03:40.982Z,1018.89
2022-09-03T21:06:22.656Z,1019.08
2022-09-03T21:09:07.957Z,1019.04
2022-09-03T21:11:42.556Z,1019.06
2022-09-03T21:14:22.885Z,1019.10
2022-09-03T21:17:04.177Z,1019.16
2022-09-03T21:19:47.702Z,1019.08
2022-09-03T21:22:30.505Z,1019.11
2022-09-03T21:25:01.985Z,1019.21
2022-09-03T21:27:35.604Z,1019.24
2022-09-03T21:30:07.639Z,1019.25
2022-09-03T21:32:42.603Z,1019.23
2022-09-03T21:35:16.666Z,1019.28
2022-09-03T21:40:29.419Z,1019.32
2022-09-03T21:43:05.385Z,1019.31
2022-09-03T21:45:39.516Z,1019.39
2022-09-03T21:48:10.025Z,1019.46
2022-09-03T21:50:46.493Z,1019.40
2022-09-03T21:53:22.939Z,1019.35
2022-09-03T21:56:02.799Z,1019.45
2022-09-03T21:58:46.369Z,1019.55
2022-09-03T22:01:20.478Z,1019.59
2022-09-03T22:03:51.468Z,1019.69
2022-09-03T22:06:26.182Z,1019.59
2022-09-03T22:09:04.369Z,1019.72
2022-09-03T22:11:40.344Z,1019.74
2022-09-03T22:14:13.525Z,1019.69
2022-09-03T22:16:53.109Z,1019.60
2022-09-03T22:19:21.213Z,1019.69
2022-09-03T22:21:54.295Z,1019.75
2022-09-03T22:24:35.082Z,1019.77
2022-09-03T22:27:09.416Z,1019.76
2022-09-03T22:29:44.163Z,1019.66
2022-09-03T22:32:25.252Z,1019.65
2022-09-03T22:35:10.016Z,1019.74
2022-09-03T22:37:45.535Z,1019.69
2022-09-03T22:40:24.250Z,1019.71
2022-09-03T22:43:04.844Z,1019.67
2022-09-03T22:45:50.606Z,1019.68
2022-09-03T22:48:31.436Z,1019.67
2022-09-03T22:51:00.217Z,1019.69
2022-09-03T22:53:41.751Z,1019.70
2022-09-03T22:56:15.046Z,1019.78
2022-09-03T22:58:49.822Z,1019.87
2022-09-03T23:01:29.372Z,1019.93
2022-09-03T23:04:02.751Z,1020.06
2022-09-03T23:06:35.967Z,1020.07
2022-09-03T23:09:06.020Z,1020.08
2022-09-03T23:11:40.111Z,1020.13
2022-09-03T23:14:10.773Z,1020.12
2022-09-03T23:16:44.270Z,1020.10
2022-09-03T23:21:53.765Z,1019.96
2022-09-03T23:24:25.584Z,1019.98
2022-09-03T23:26:54.617Z,1020.02
2022-09-03T23:29:27.014Z,1020.11
2022-09-03T23:31:56.650Z,1020.16
2022-09-03T23:34:23.944Z,1020.16
2022-09-03T23:37:32.000Z,1020.08
2022-09-03T23:40:19.625Z,1020.26
2022-09-03T23:43:14.262Z,1020.32
2022-09-03T23:45:47.844Z,1020.35
2022-09-03T23:48:27.120Z,1020.48
2022-09-03T23:51:04.054Z,1020.55
2022-09-03T23:53:47.971Z,1020.49
2022-09-03T23:56:53.297Z,1020.53
2022-09-03T23:59:25.431Z,1020.55
